sensor_id;sensor_type;location;lat;lon;timestamp;pressure;altitude;pressure_sealevel;temperature;humidity
79174;BME280;68599;49.142;9.124;2024-03-29T00:01:36;98024.86;;;7.67;52.94
79174;BME280;68599;49.142;9.124;2024-03-29T00:04:02;98020.52;;;7.74;52.66
79174;BME280;68599;49.142;9.124;2024-03-29T00:06:28;98020.26;;;7.76;52.38
79174;BME280;68599;49.142;9.124;2024-03-29T00:08:55;98008.61;;;7.81;52.27
79174;BME280;68599;49.142;9.124;2024-03-29T00:11:21;98011.50;;;7.92;51.73
79174;BME280;68599;49.142;9.124;2024-03-29T00:13:47;98004.19;;;7.91;51.61
79174;BME280;68599;49.142;9.124;2024-03-29T00:16:14;97998.83;;;7.85;51.61
79174;BME280;68599;49.142;9.124;2024-03-29T00:18:40;97990.41;;;7.84;51.52
79174;BME280;68599;49.142;9.124;2024-03-29T00:21:06;97990.16;;;7.92;51.34
79174;BME280;68599;49.142;9.124;2024-03-29T00:23:33;97987.57;;;8.05;50.98
79174;BME280;68599;49.142;9.124;2024-03-29T00:25:59;97986.73;;;8.09;51.14
79174;BME280;68599;49.142;9.124;2024-03-29T00:28:25;97981.00;;;8.14;51.13
79174;BME280;68599;49.142;9.124;2024-03-29T00:30:52;97967.09;;;8.06;51.04
79174;BME280;68599;49.142;9.124;2024-03-29T00:33:18;97961.71;;;8.11;50.96
79174;BME280;68599;49.142;9.124;2024-03-29T00:35:44;97952.81;;;8.14;51.20
79174;BME280;68599;49.142;9.124;2024-03-29T00:38:11;97950.58;;;8.12;50.98
79174;BME280;68599;49.142;9.124;2024-03-29T00:40:38;97948.98;;;8.21;50.72
79174;BME280;68599;49.142;9.124;2024-03-29T00:43:04;97947.41;;;8.20;51.03
79174;BME280;68599;49.142;9.124;2024-03-29T00:45:30;97959.60;;;8.20;51.01
79174;BME280;68599;49.142;9.124;2024-03-29T00:47:58;97964.38;;;8.17;51.22
79174;BME280;68599;49.142;9.124;2024-03-29T00:50:25;97963.42;;;8.18;51.12
79174;BME280;68599;49.142;9.124;2024-03-29T00:52:51;97961.03;;;8.20;51.24
79174;BME280;68599;49.142;9.124;2024-03-29T00:55:17;97954.20;;;8.16;51.29
79174;BME280;68599;49.142;9.124;2024-03-29T00:57:43;97948.34;;;8.14;51.58
79174;BME280;68599;49.142;9.124;2024-03-29T01:00:10;97948.92;;;8.13;51.89
79174;BME280;68599;49.142;9.124;2024-03-29T01:02:36;97945.66;;;8.03;52.33
79174;BME280;68599;49.142;9.124;2024-03-29T01:05:04;97946.25;;;7.91;52.49
79174;BME280;68599;49.142;9.124;2024-03-29T01:07:30;97929.58;;;8.07;52.06
79174;BME280;68599;49.142;9.124;2024-03-29T01:09:56;97922.61;;;8.01;52.36
79174;BME280;68599;49.142;9.124;2024-03-29T01:12:23;97917.44;;;7.95;52.48
79174;BME280;68599;49.142;9.124;2024-03-29T01:14:49;97907.28;;;7.98;52.21
79174;BME280;68599;49.142;9.124;2024-03-29T01:17:15;97906.65;;;7.96;52.49
79174;BME280;68599;49.142;9.124;2024-03-29T01:19:42;97906.08;;;7.97;52.42
79174;BME280;68599;49.142;9.124;2024-03-29T01:22:08;97907.58;;;8.00;52.34
79174;BME280;68599;49.142;9.124;2024-03-29T01:24:34;97923.90;;;8.10;52.03
79174;BME280;68599;49.142;9.124;2024-03-29T01:27:01;97941.11;;;8.26;51.57
79174;BME280;68599;49.142;9.124;2024-03-29T01:29:27;97937.50;;;8.21;51.82
79174;BME280;68599;49.142;9.124;2024-03-29T01:31:54;97925.52;;;8.15;51.96
79174;BME280;68599;49.142;9.124;2024-03-29T01:34:21;97920.75;;;8.18;52.16
79174;BME280;68599;49.142;9.124;2024-03-29T01:36:47;97922.40;;;8.27;51.69
79174;BME280;68599;49.142;9.124;2024-03-29T01:39:14;97931.16;;;8.34;51.42
79174;BME280;68599;49.142;9.124;2024-03-29T01:41:43;97933.55;;;8.47;50.89
79174;BME280;68599;49.142;9.124;2024-03-29T01:44:09;97928.83;;;8.54;50.99
79174;BME280;68599;49.142;9.124;2024-03-29T01:46:36;97913.77;;;8.44;51.47
79174;BME280;68599;49.142;9.124;2024-03-29T01:49:04;97906.67;;;8.42;51.25
79174;BME280;68599;49.142;9.124;2024-03-29T01:51:34;97904.35;;;8.31;51.56
79174;BME280;68599;49.142;9.124;2024-03-29T01:54:03;97900.41;;;8.36;51.83
79174;BME280;68599;49.142;9.124;2024-03-29T01:56:30;97890.28;;;8.43;51.70
79174;BME280;68599;49.142;9.124;2024-03-29T01:58:58;97879.52;;;8.38;52.13
79174;BME280;68599;49.142;9.124;2024-03-29T02:01:26;97872.70;;;8.38;51.84
79174;BME280;68599;49.142;9.124;2024-03-29T02:03:53;97863.88;;;8.34;52.40
79174;BME280;68599;49.142;9.124;2024-03-29T02:06:20;97870.70;;;8.34;52.67
79174;BME280;68599;49.142;9.124;2024-03-29T02:08:49;97884.33;;;8.34;52.65
79174;BME280;68599;49.142;9.124;2024-03-29T02:11:18;97888.95;;;8.54;51.70
79174;BME280;68599;49.142;9.124;2024-03-29T02:13:46;97885.73;;;8.59;51.66
79174;BME280;68599;49.142;9.124;2024-03-29T02:16:13;97886.95;;;8.55;51.90
79174;BME280;68599;49.142;9.124;2024-03-29T02:18:40;97888.84;;;8.58;51.72
79174;BME280;68599;49.142;9.124;2024-03-29T02:21:07;97886.20;;;8.66;51.59
79174;BME280;68599;49.142;9.124;2024-03-29T02:23:36;97881.16;;;8.66;51.68
79174;BME280;68599;49.142;9.124;2024-03-29T02:26:04;97878.52;;;8.60;52.01
79174;BME280;68599;49.142;9.124;2024-03-29T02:28:30;97881.83;;;8.48;52.43
79174;BME280;68599;49.142;9.124;2024-03-29T02:30:57;97887.70;;;8.54;52.27
79174;BME280;68599;49.142;9.124;2024-03-29T02:33:23;97898.52;;;8.48;52.34
79174;BME280;68599;49.142;9.124;2024-03-29T02:35:50;97898.48;;;8.54;52.25
79174;BME280;68599;49.142;9.124;2024-03-29T02:38:16;97899.52;;;8.55;52.22
79174;BME280;68599;49.142;9.124;2024-03-29T02:40:42;97892.77;;;8.54;52.35
79174;BME280;68599;49.142;9.124;2024-03-29T02:43:09;97887.84;;;8.51;52.57
79174;BME280;68599;49.142;9.124;2024-03-29T02:45:35;97880.90;;;8.54;52.50
79174;BME280;68599;49.142;9.124;2024-03-29T02:48:02;97884.60;;;8.61;51.99
79174;BME280;68599;49.142;9.124;2024-03-29T02:50:28;97885.45;;;8.62;52.42
79174;BME280;68599;49.142;9.124;2024-03-29T02:52:55;97898.11;;;8.74;51.92
79174;BME280;68599;49.142;9.124;2024-03-29T02:55:21;97896.84;;;8.79;51.81
79174;BME280;68599;49.142;9.124;2024-03-29T02:57:47;97895.73;;;8.84;51.91
79174;BME280;68599;49.142;9.124;2024-03-29T03:00:14;97892.95;;;8.82;51.94
79174;BME280;68599;49.142;9.124;2024-03-29T03:02:41;97893.46;;;8.88;51.70
79174;BME280;68599;49.142;9.124;2024-03-29T03:05:07;97891.34;;;8.87;51.63
79174;BME280;68599;49.142;9.124;2024-03-29T03:07:34;97897.28;;;8.96;51.37
79174;BME280;68599;49.142;9.124;2024-03-29T03:10:20;97894.91;;;8.92;51.48
79174;BME280;68599;49.142;9.124;2024-03-29T03:13:05;97900.21;;;8.99;51.38
79174;BME280;68599;49.142;9.124;2024-03-29T03:15:31;97901.38;;;8.96;51.71
79174;BME280;68599;49.142;9.124;2024-03-29T03:17:57;97899.61;;;9.00;51.84
79174;BME280;68599;49.142;9.124;2024-03-29T03:20:24;97893.40;;;9.02;51.52
79174;BME280;68599;49.142;9.124;2024-03-29T03:22:54;97890.41;;;9.06;51.29
79174;BME280;68599;49.142;9.124;2024-03-29T03:25:22;97885.38;;;9.16;50.94
79174;BME280;68599;49.142;9.124;2024-03-29T03:27:48;97895.44;;;9.06;51.05
79174;BME280;68599;49.142;9.124;2024-03-29T03:30:15;97912.41;;;9.13;50.91
79174;BME280;68599;49.142;9.124;2024-03-29T03:32:41;97916.92;;;9.13;50.81
79174;BME280;68599;49.142;9.124;2024-03-29T03:35:08;97895.13;;;8.95;51.37
79174;BME280;68599;49.142;9.124;2024-03-29T03:37:34;97899.16;;;8.93;51.34
79174;BME280;68599;49.142;9.124;2024-03-29T03:40:00;97943.02;;;9.11;50.61
79174;BME280;68599;49.142;9.124;2024-03-29T03:42:27;97949.02;;;8.95;50.88
79174;BME280;68599;49.142;9.124;2024-03-29T03:44:53;97952.16;;;9.12;49.51
79174;BME280;68599;49.142;9.124;2024-03-29T03:47:19;97922.12;;;9.35;48.73
79174;BME280;68599;49.142;9.124;2024-03-29T03:49:46;97970.23;;;9.64;48.47
79174;BME280;68599;49.142;9.124;2024-03-29T03:52:12;97980.15;;;9.54;47.88
79174;BME280;68599;49.142;9.124;2024-03-29T03:54:39;97959.02;;;9.39;49.16
79174;BME280;68599;49.142;9.124;2024-03-29T03:57:05;97960.89;;;9.60;50.09
79174;BME280;68599;49.142;9.124;2024-03-29T03:59:32;97958.09;;;9.67;49.17
79174;BME280;68599;49.142;9.124;2024-03-29T04:01:58;97939.72;;;9.72;49.24
79174;BME280;68599;49.142;9.124;2024-03-29T04:04:24;97952.02;;;9.74;49.57
79174;BME280;68599;49.142;9.124;2024-03-29T04:06:51;97951.29;;;9.79;48.65
79174;BME280;68599;49.142;9.124;2024-03-29T04:09:17;97934.68;;;9.76;49.04
79174;BME280;68599;49.142;9.124;2024-03-29T04:11:44;97918.94;;;9.61;49.63
79174;BME280;68599;49.142;9.124;2024-03-29T04:14:10;97909.63;;;9.56;49.68
79174;BME280;68599;49.142;9.124;2024-03-29T04:16:36;97907.14;;;9.59;50.81
79174;BME280;68599;49.142;9.124;2024-03-29T04:19:03;97903.42;;;9.45;50.47
79174;BME280;68599;49.142;9.124;2024-03-29T04:21:29;97892.44;;;9.36;51.16
79174;BME280;68599;49.142;9.124;2024-03-29T04:23:55;97891.63;;;9.43;52.07
79174;BME280;68599;49.142;9.124;2024-03-29T04:26:22;97885.98;;;9.32;52.93
79174;BME280;68599;49.142;9.124;2024-03-29T04:28:48;97877.77;;;9.21;52.77
79174;BME280;68599;49.142;9.124;2024-03-29T04:31:14;97876.66;;;9.22;53.76
79174;BME280;68599;49.142;9.124;2024-03-29T04:33:41;97872.94;;;9.21;53.96
79174;BME280;68599;49.142;9.124;2024-03-29T04:36:08;97873.94;;;9.23;54.19
79174;BME280;68599;49.142;9.124;2024-03-29T04:38:34;97865.96;;;9.29;53.40
79174;BME280;68599;49.142;9.124;2024-03-29T04:41:01;97860.50;;;9.35;53.73
79174;BME280;68599;49.142;9.124;2024-03-29T04:43:28;97864.40;;;9.49;53.01
79174;BME280;68599;49.142;9.124;2024-03-29T04:46:14;97866.55;;;9.54;53.14
79174;BME280;68599;49.142;9.124;2024-03-29T04:48:42;97875.40;;;9.49;53.10
79174;BME280;68599;49.142;9.124;2024-03-29T04:51:09;97881.02;;;9.21;54.73
79174;BME280;68599;49.142;9.124;2024-03-29T04:53:36;97877.70;;;9.18;53.51
79174;BME280;68599;49.142;9.124;2024-03-29T04:56:03;97888.05;;;9.34;53.75
79174;BME280;68599;49.142;9.124;2024-03-29T04:58:30;97896.70;;;9.24;54.30
79174;BME280;68599;49.142;9.124;2024-03-29T05:00:56;97914.52;;;9.37;52.81
79174;BME280;68599;49.142;9.124;2024-03-29T05:03:23;97925.79;;;9.52;52.33
79174;BME280;68599;49.142;9.124;2024-03-29T05:05:50;97893.98;;;9.51;51.98
79174;BME280;68599;49.142;9.124;2024-03-29T05:08:17;97891.73;;;9.62;52.02
79174;BME280;68599;49.142;9.124;2024-03-29T05:10:46;97892.26;;;9.54;49.97
79174;BME280;68599;49.142;9.124;2024-03-29T05:13:12;97882.48;;;9.64;49.40
79174;BME280;68599;49.142;9.124;2024-03-29T05:15:38;97898.70;;;9.76;49.42
79174;BME280;68599;49.142;9.124;2024-03-29T05:18:05;97866.14;;;9.85;49.70
79174;BME280;68599;49.142;9.124;2024-03-29T05:20:31;97870.65;;;9.97;49.84
79174;BME280;68599;49.142;9.124;2024-03-29T05:22:58;97873.63;;;10.04;49.71
79174;BME280;68599;49.142;9.124;2024-03-29T05:25:25;97859.37;;;10.05;50.59
79174;BME280;68599;49.142;9.124;2024-03-29T05:27:52;97853.29;;;10.04;50.78
79174;BME280;68599;49.142;9.124;2024-03-29T05:30:19;97845.94;;;9.73;52.15
79174;BME280;68599;49.142;9.124;2024-03-29T05:32:46;97847.33;;;9.62;52.07
79174;BME280;68599;49.142;9.124;2024-03-29T05:35:12;97850.23;;;9.61;52.24
79174;BME280;68599;49.142;9.124;2024-03-29T05:37:40;97851.31;;;9.57;52.09
79174;BME280;68599;49.142;9.124;2024-03-29T05:40:08;97844.89;;;9.60;51.99
79174;BME280;68599;49.142;9.124;2024-03-29T05:42:35;97852.52;;;9.71;51.85
79174;BME280;68599;49.142;9.124;2024-03-29T05:45:22;97848.60;;;9.70;51.27
79174;BME280;68599;49.142;9.124;2024-03-29T05:47:49;97842.42;;;9.76;50.52
79174;BME280;68599;49.142;9.124;2024-03-29T05:50:16;97845.67;;;9.80;50.56
79174;BME280;68599;49.142;9.124;2024-03-29T05:52:42;97863.48;;;9.97;49.91
79174;BME280;68599;49.142;9.124;2024-03-29T05:55:09;97864.28;;;9.90;50.32
79174;BME280;68599;49.142;9.124;2024-03-29T05:57:35;97871.87;;;9.85;50.31
79174;BME280;68599;49.142;9.124;2024-03-29T06:00:08;97864.14;;;9.94;49.62
79174;BME280;68599;49.142;9.124;2024-03-29T06:02:37;97872.90;;;10.00;48.93
79174;BME280;68599;49.142;9.124;2024-03-29T06:05:05;97895.36;;;10.08;48.95
79174;BME280;68599;49.142;9.124;2024-03-29T06:07:31;97900.29;;;10.11;49.42
79174;BME280;68599;49.142;9.124;2024-03-29T06:10:00;97885.38;;;10.06;46.98
79174;BME280;68599;49.142;9.124;2024-03-29T06:12:33;97878.30;;;10.08;46.79
79174;BME280;68599;49.142;9.124;2024-03-29T06:15:01;97874.81;;;10.14;47.09
79174;BME280;68599;49.142;9.124;2024-03-29T06:17:46;97875.92;;;10.26;46.53
79174;BME280;68599;49.142;9.124;2024-03-29T06:20:12;97880.37;;;10.39;46.40
79174;BME280;68599;49.142;9.124;2024-03-29T06:22:39;97892.93;;;10.44;46.25
79174;BME280;68599;49.142;9.124;2024-03-29T06:25:06;97889.11;;;10.45;46.41
79174;BME280;68599;49.142;9.124;2024-03-29T06:27:33;97896.27;;;10.34;47.89
79174;BME280;68599;49.142;9.124;2024-03-29T06:30:00;97901.10;;;10.30;48.14
79174;BME280;68599;49.142;9.124;2024-03-29T06:32:26;97905.71;;;10.19;47.63
79174;BME280;68599;49.142;9.124;2024-03-29T06:34:53;97905.41;;;10.18;47.81
79174;BME280;68599;49.142;9.124;2024-03-29T06:37:19;97913.77;;;10.41;47.25
79174;BME280;68599;49.142;9.124;2024-03-29T06:39:48;97909.31;;;10.44;47.08
79174;BME280;68599;49.142;9.124;2024-03-29T06:42:14;97910.46;;;10.46;46.84
79174;BME280;68599;49.142;9.124;2024-03-29T06:44:41;97908.36;;;10.37;47.57
79174;BME280;68599;49.142;9.124;2024-03-29T06:47:08;97916.91;;;10.47;47.51
79174;BME280;68599;49.142;9.124;2024-03-29T06:49:35;97919.55;;;10.57;46.95
79174;BME280;68599;49.142;9.124;2024-03-29T06:52:02;97911.14;;;10.35;47.24
79174;BME280;68599;49.142;9.124;2024-03-29T06:54:32;97906.24;;;10.36;47.29
79174;BME280;68599;49.142;9.124;2024-03-29T06:56:59;97903.69;;;10.53;46.91
79174;BME280;68599;49.142;9.124;2024-03-29T06:59:26;97909.02;;;10.74;46.30
79174;BME280;68599;49.142;9.124;2024-03-29T07:01:52;97897.58;;;10.72;47.02
79174;BME280;68599;49.142;9.124;2024-03-29T07:04:19;97914.79;;;10.98;45.58
79174;BME280;68599;49.142;9.124;2024-03-29T07:06:46;97913.66;;;10.95;45.33
79174;BME280;68599;49.142;9.124;2024-03-29T07:09:18;97889.55;;;10.75;45.73
79174;BME280;68599;49.142;9.124;2024-03-29T07:11:46;97893.75;;;10.90;44.49
79174;BME280;68599;49.142;9.124;2024-03-29T07:14:14;97884.74;;;11.01;44.73
79174;BME280;68599;49.142;9.124;2024-03-29T07:16:42;97876.80;;;11.27;44.47
79174;BME280;68599;49.142;9.124;2024-03-29T07:19:09;97870.96;;;11.14;44.53
79174;BME280;68599;49.142;9.124;2024-03-29T07:21:39;97866.57;;;10.93;44.47
79174;BME280;68599;49.142;9.124;2024-03-29T07:24:06;97875.31;;;10.98;44.94
79174;BME280;68599;49.142;9.124;2024-03-29T07:26:33;97883.14;;;11.00;45.17
79174;BME280;68599;49.142;9.124;2024-03-29T07:28:59;97881.84;;;10.94;45.67
79174;BME280;68599;49.142;9.124;2024-03-29T07:31:26;97886.48;;;10.79;45.22
79174;BME280;68599;49.142;9.124;2024-03-29T07:33:52;97892.30;;;10.73;44.78
79174;BME280;68599;49.142;9.124;2024-03-29T07:36:19;97892.48;;;10.74;43.22
79174;BME280;68599;49.142;9.124;2024-03-29T07:38:45;97905.43;;;10.90;43.29
79174;BME280;68599;49.142;9.124;2024-03-29T07:41:11;97907.38;;;10.98;43.79
79174;BME280;68599;49.142;9.124;2024-03-29T07:43:41;97917.73;;;10.97;44.32
79174;BME280;68599;49.142;9.124;2024-03-29T07:46:08;97901.98;;;10.83;44.23
79174;BME280;68599;49.142;9.124;2024-03-29T07:48:35;97903.27;;;10.90;43.86
79174;BME280;68599;49.142;9.124;2024-03-29T07:51:02;97909.95;;;10.97;43.88
79174;BME280;68599;49.142;9.124;2024-03-29T07:53:28;97908.62;;;10.91;44.78
79174;BME280;68599;49.142;9.124;2024-03-29T07:55:55;97912.77;;;10.87;45.00
79174;BME280;68599;49.142;9.124;2024-03-29T07:58:21;97922.20;;;10.97;45.41
79174;BME280;68599;49.142;9.124;2024-03-29T08:00:48;97937.86;;;10.94;46.32
79174;BME280;68599;49.142;9.124;2024-03-29T08:03:14;97943.98;;;10.74;48.02
79174;BME280;68599;49.142;9.124;2024-03-29T08:05:40;97956.65;;;10.61;49.34
79174;BME280;68599;49.142;9.124;2024-03-29T08:08:07;97956.27;;;10.61;49.71
79174;BME280;68599;49.142;9.124;2024-03-29T08:10:33;97962.77;;;10.61;50.80
79174;BME280;68599;49.142;9.124;2024-03-29T08:13:00;97966.77;;;10.52;51.49
79174;BME280;68599;49.142;9.124;2024-03-29T08:15:27;97970.99;;;10.54;50.88
79174;BME280;68599;49.142;9.124;2024-03-29T08:17:53;97965.89;;;10.39;51.52
79174;BME280;68599;49.142;9.124;2024-03-29T08:20:20;97951.20;;;10.29;53.22
79174;BME280;68599;49.142;9.124;2024-03-29T08:22:46;97958.36;;;10.12;55.24
79174;BME280;68599;49.142;9.124;2024-03-29T08:25:12;97971.66;;;9.95;56.77
79174;BME280;68599;49.142;9.124;2024-03-29T08:27:39;97984.16;;;9.89;57.10
79174;BME280;68599;49.142;9.124;2024-03-29T08:30:07;97992.84;;;9.79;57.16
79174;BME280;68599;49.142;9.124;2024-03-29T08:32:33;98008.10;;;9.66;59.16
79174;BME280;68599;49.142;9.124;2024-03-29T08:35:00;98022.14;;;9.47;60.79
79174;BME280;68599;49.142;9.124;2024-03-29T08:37:26;98032.16;;;9.40;61.98
79174;BME280;68599;49.142;9.124;2024-03-29T08:39:52;98041.10;;;9.22;63.00
79174;BME280;68599;49.142;9.124;2024-03-29T08:42:19;98050.41;;;9.14;64.56
79174;BME280;68599;49.142;9.124;2024-03-29T08:44:46;98055.52;;;9.11;64.16
79174;BME280;68599;49.142;9.124;2024-03-29T08:47:13;98069.54;;;9.11;64.92
79174;BME280;68599;49.142;9.124;2024-03-29T08:49:39;98076.06;;;9.09;66.73
79174;BME280;68599;49.142;9.124;2024-03-29T08:52:06;98076.73;;;9.00;68.18
79174;BME280;68599;49.142;9.124;2024-03-29T08:54:32;98065.88;;;8.88;68.96
79174;BME280;68599;49.142;9.124;2024-03-29T08:56:59;98064.77;;;8.79;70.40
79174;BME280;68599;49.142;9.124;2024-03-29T08:59:27;98062.50;;;8.87;70.22
79174;BME280;68599;49.142;9.124;2024-03-29T09:01:54;98067.91;;;8.81;70.64
79174;BME280;68599;49.142;9.124;2024-03-29T09:04:20;98070.83;;;8.75;71.62
79174;BME280;68599;49.142;9.124;2024-03-29T09:06:46;98067.59;;;8.80;71.77
79174;BME280;68599;49.142;9.124;2024-03-29T09:09:13;98074.73;;;8.91;71.86
79174;BME280;68599;49.142;9.124;2024-03-29T09:11:40;98078.87;;;8.81;72.52
79174;BME280;68599;49.142;9.124;2024-03-29T09:14:06;98080.63;;;8.82;73.25
79174;BME280;68599;49.142;9.124;2024-03-29T09:16:35;98084.36;;;8.78;74.34
79174;BME280;68599;49.142;9.124;2024-03-29T09:19:02;98092.01;;;8.85;73.85
79174;BME280;68599;49.142;9.124;2024-03-29T09:21:28;98086.27;;;8.95;74.60
79174;BME280;68599;49.142;9.124;2024-03-29T09:23:55;98083.81;;;9.09;74.34
79174;BME280;68599;49.142;9.124;2024-03-29T09:26:21;98082.40;;;9.07;74.44
79174;BME280;68599;49.142;9.124;2024-03-29T09:28:47;98080.98;;;9.27;74.16
79174;BME280;68599;49.142;9.124;2024-03-29T09:31:14;98077.49;;;9.48;74.26
79174;BME280;68599;49.142;9.124;2024-03-29T09:33:40;98074.09;;;9.58;74.08
79174;BME280;68599;49.142;9.124;2024-03-29T09:36:07;98079.03;;;9.69;74.28
79174;BME280;68599;49.142;9.124;2024-03-29T09:38:36;98079.25;;;9.86;74.74
79174;BME280;68599;49.142;9.124;2024-03-29T09:41:17;98083.90;;;9.92;74.70
79174;BME280;68599;49.142;9.124;2024-03-29T09:43:44;98078.19;;;10.00;73.95
79174;BME280;68599;49.142;9.124;2024-03-29T09:46:12;98081.28;;;9.89;74.34
79174;BME280;68599;49.142;9.124;2024-03-29T09:48:40;98078.90;;;9.91;75.29
79174;BME280;68599;49.142;9.124;2024-03-29T09:51:07;98070.66;;;10.26;74.03
79174;BME280;68599;49.142;9.124;2024-03-29T09:53:35;98069.05;;;10.21;74.96
79174;BME280;68599;49.142;9.124;2024-03-29T09:56:06;98067.02;;;10.45;73.63
79174;BME280;68599;49.142;9.124;2024-03-29T09:58:34;98063.45;;;10.65;72.84
79174;BME280;68599;49.142;9.124;2024-03-29T10:01:05;98066.29;;;10.70;72.67
79174;BME280;68599;49.142;9.124;2024-03-29T10:03:36;98070.55;;;10.97;71.76
79174;BME280;68599;49.142;9.124;2024-03-29T10:06:04;98070.44;;;11.20;71.25
79174;BME280;68599;49.142;9.124;2024-03-29T10:08:31;98060.65;;;11.52;70.37
79174;BME280;68599;49.142;9.124;2024-03-29T10:10:57;98062.61;;;11.80;69.96
79174;BME280;68599;49.142;9.124;2024-03-29T10:13:24;98049.61;;;12.14;69.08
79174;BME280;68599;49.142;9.124;2024-03-29T10:15:55;98039.50;;;12.32;69.06
79174;BME280;68599;49.142;9.124;2024-03-29T10:18:23;98030.27;;;12.32;67.49
79174;BME280;68599;49.142;9.124;2024-03-29T10:21:04;98024.51;;;12.43;67.66
79174;BME280;68599;49.142;9.124;2024-03-29T10:23:31;98018.20;;;12.61;67.55
79174;BME280;68599;49.142;9.124;2024-03-29T10:25:58;98016.05;;;12.78;67.10
79174;BME280;68599;49.142;9.124;2024-03-29T10:28:30;98004.27;;;12.74;67.78
79174;BME280;68599;49.142;9.124;2024-03-29T10:30:58;97992.38;;;12.91;67.11
79174;BME280;68599;49.142;9.124;2024-03-29T10:33:29;97984.49;;;12.90;67.47
79174;BME280;68599;49.142;9.124;2024-03-29T10:35:57;97976.67;;;12.94;67.97
79174;BME280;68599;49.142;9.124;2024-03-29T10:38:25;97986.52;;;12.93;68.24
79174;BME280;68599;49.142;9.124;2024-03-29T10:40:54;98010.08;;;12.92;68.05
79174;BME280;68599;49.142;9.124;2024-03-29T10:43:21;98026.17;;;12.74;68.99
79174;BME280;68599;49.142;9.124;2024-03-29T10:45:50;98037.78;;;12.52;69.41
79174;BME280;68599;49.142;9.124;2024-03-29T10:48:21;98029.88;;;12.26;70.46
79174;BME280;68599;49.142;9.124;2024-03-29T10:50:48;98011.88;;;12.29;70.61
79174;BME280;68599;49.142;9.124;2024-03-29T10:53:17;98008.73;;;12.41;70.46
79174;BME280;68599;49.142;9.124;2024-03-29T10:55:44;98007.36;;;12.50;69.73
79174;BME280;68599;49.142;9.124;2024-03-29T10:58:11;98005.75;;;12.46;70.47
79174;BME280;68599;49.142;9.124;2024-03-29T11:00:46;98000.17;;;12.70;69.92
79174;BME280;68599;49.142;9.124;2024-03-29T11:06:02;97986.45;;;15.91;59.89
79174;BME280;68599;49.142;9.124;2024-03-29T11:08:32;97974.71;;;17.73;54.35
79174;BME280;68599;49.142;9.124;2024-03-29T11:11:02;97964.96;;;19.02;50.82
79174;BME280;68599;49.142;9.124;2024-03-29T11:13:52;97956.23;;;20.02;47.50
79174;BME280;68599;49.142;9.124;2024-03-29T11:16:19;97961.69;;;18.74;49.58
79174;BME280;68599;49.142;9.124;2024-03-29T11:18:47;97947.54;;;18.15;52.24
79174;BME280;68599;49.142;9.124;2024-03-29T11:21:15;97949.15;;;17.81;52.58
79174;BME280;68599;49.142;9.124;2024-03-29T11:23:52;97953.84;;;17.36;53.21
79174;BME280;68599;49.142;9.124;2024-03-29T11:26:19;97961.21;;;16.46;55.68
79174;BME280;68599;49.142;9.124;2024-03-29T11:28:50;97964.75;;;15.90;57.37
79174;BME280;68599;49.142;9.124;2024-03-29T11:31:17;97961.79;;;15.86;57.52
79174;BME280;68599;49.142;9.124;2024-03-29T11:33:45;97972.95;;;15.36;59.48
79174;BME280;68599;49.142;9.124;2024-03-29T11:36:13;97970.14;;;15.29;59.98
79174;BME280;68599;49.142;9.124;2024-03-29T11:38:40;97967.42;;;14.85;62.24
79174;BME280;68599;49.142;9.124;2024-03-29T11:41:18;97967.36;;;14.86;62.22
79174;BME280;68599;49.142;9.124;2024-03-29T11:43:45;97966.80;;;14.47;62.46
79174;BME280;68599;49.142;9.124;2024-03-29T11:46:14;97968.17;;;14.11;64.21
79174;BME280;68599;49.142;9.124;2024-03-29T11:48:42;97970.31;;;13.96;65.18
79174;BME280;68599;49.142;9.124;2024-03-29T11:51:13;97969.80;;;13.95;64.95
79174;BME280;68599;49.142;9.124;2024-03-29T11:53:41;97970.53;;;13.80;65.33
79174;BME280;68599;49.142;9.124;2024-03-29T11:56:09;97973.70;;;13.65;65.60
79174;BME280;68599;49.142;9.124;2024-03-29T11:58:37;97977.56;;;13.61;65.66
79174;BME280;68599;49.142;9.124;2024-03-29T12:01:05;97980.30;;;13.48;66.80
79174;BME280;68599;49.142;9.124;2024-03-29T12:03:32;97987.89;;;13.51;67.02
79174;BME280;68599;49.142;9.124;2024-03-29T12:05:59;97988.05;;;13.61;66.78
79174;BME280;68599;49.142;9.124;2024-03-29T12:08:30;97984.29;;;13.77;66.16
79174;BME280;68599;49.142;9.124;2024-03-29T12:10:58;97984.84;;;13.73;66.16
79174;BME280;68599;49.142;9.124;2024-03-29T12:13:25;97983.58;;;13.73;66.56
79174;BME280;68599;49.142;9.124;2024-03-29T12:15:52;97984.57;;;13.87;65.74
79174;BME280;68599;49.142;9.124;2024-03-29T12:18:23;97984.27;;;13.71;65.99
79174;BME280;68599;49.142;9.124;2024-03-29T12:20:50;97993.37;;;13.66;66.37
79174;BME280;68599;49.142;9.124;2024-03-29T12:23:18;97990.38;;;13.78;66.11
79174;BME280;68599;49.142;9.124;2024-03-29T12:25:45;97992.61;;;13.76;66.63
79174;BME280;68599;49.142;9.124;2024-03-29T12:28:13;98006.84;;;13.88;65.95
79174;BME280;68599;49.142;9.124;2024-03-29T12:30:42;98007.65;;;14.05;65.90
79174;BME280;68599;49.142;9.124;2024-03-29T12:33:12;98020.05;;;14.19;64.75
79174;BME280;68599;49.142;9.124;2024-03-29T12:35:44;98022.80;;;14.22;64.49
79174;BME280;68599;49.142;9.124;2024-03-29T12:38:12;98033.32;;;14.19;65.10
79174;BME280;68599;49.142;9.124;2024-03-29T12:40:41;98035.19;;;14.27;64.69
79174;BME280;68599;49.142;9.124;2024-03-29T12:43:10;98039.45;;;14.16;65.15
79174;BME280;68599;49.142;9.124;2024-03-29T12:45:41;98056.22;;;14.17;64.68
79174;BME280;68599;49.142;9.124;2024-03-29T12:48:16;98068.61;;;13.94;65.43
79174;BME280;68599;49.142;9.124;2024-03-29T12:50:44;98067.05;;;13.86;66.25
79174;BME280;68599;49.142;9.124;2024-03-29T12:53:12;98064.15;;;13.76;66.57
79174;BME280;68599;49.142;9.124;2024-03-29T12:55:41;98031.30;;;13.81;67.17
79174;BME280;68599;49.142;9.124;2024-03-29T12:58:12;98026.41;;;13.88;66.58
79174;BME280;68599;49.142;9.124;2024-03-29T13:00:39;98030.14;;;14.01;66.07
79174;BME280;68599;49.142;9.124;2024-03-29T13:03:06;98032.70;;;14.14;66.15
79174;BME280;68599;49.142;9.124;2024-03-29T13:05:35;98027.84;;;14.13;66.51
79174;BME280;68599;49.142;9.124;2024-03-29T13:08:07;98026.86;;;14.21;66.12
79174;BME280;68599;49.142;9.124;2024-03-29T13:10:37;98034.52;;;14.26;66.14